Time;durP1;ratioP1;P1;durP2;ratioP2;P2;SDS_P1;SDS_P2;PMS_P1;PMS_P2;Temp;Humidity;BMP_temperature;BMP_pressure;BME280_temperature;BME280_humidity;BME280_pressure;Samples;Min_cycle;Max_cycle;Signal;HPM_P1;HPM_P2
2022/10/01 00:01:15;;;;;;;8.05;3.00;;;11.70;99.90;;;;;;4957046;28;20265;-64
2022/10/01 00:03:42;;;;;;;4.82;3.05;;;11.70;99.90;;;;;;4980033;28;20334;-64
2022/10/01 00:06:12;;;;;;;3.72;2.70;;;11.70;99.90;;;;;;4960799;28;20214;-64
2022/10/01 00:08:40;;;;;;;5.45;2.70;;;11.80;99.90;;;;;;4968133;28;20710;-64
2022/10/01 00:11:08;;;;;;;3.63;2.65;;;11.70;99.90;;;;;;4973200;28;20225;-64
2022/10/01 00:13:37;;;;;;;4.05;2.88;;;11.80;99.90;;;;;;4987961;28;20257;-64
2022/10/01 00:16:06;;;;;;;2.63;2.42;;;11.80;99.90;;;;;;4957621;28;20290;-64
2022/10/01 00:18:35;;;;;;;3.10;2.60;;;11.80;99.90;;;;;;4983016;28;20226;-63
2022/10/01 00:21:06;;;;;;;3.28;2.60;;;11.60;99.90;;;;;;4989751;28;20691;-64
2022/10/01 00:23:33;;;;;;;4.25;2.30;;;11.90;99.90;;;;;;4961782;28;20870;-64
2022/10/01 00:26:10;;;;;;;3.70;2.42;;;11.70;99.90;;;;;;4970190;28;20339;-64
2022/10/01 00:28:36;;;;;;;9.68;2.40;;;11.90;99.90;;;;;;4987570;28;20277;-64
2022/10/01 00:31:05;;;;;;;6.47;2.40;;;11.60;99.90;;;;;;4958456;28;20206;-64
2022/10/01 00:33:31;;;;;;;3.95;2.60;;;11.90;99.90;;;;;;4984640;28;20231;-63
2022/10/01 00:35:59;;;;;;;4.68;2.22;;;11.90;99.90;;;;;;4968914;28;20214;-64
2022/10/01 00:38:28;;;;;;;5.03;2.80;;;11.90;99.90;;;;;;4962690;28;20213;-64
2022/10/01 00:40:54;;;;;;;7.00;2.20;;;11.90;99.90;;;;;;4963384;28;20210;-64
2022/10/01 00:43:23;;;;;;;3.83;2.55;;;12.10;99.90;;;;;;4982997;28;20203;-63
2022/10/01 00:45:53;;;;;;;4.22;2.63;;;12.00;99.90;;;;;;4974912;28;21458;-64
2022/10/01 00:48:21;;;;;;;3.00;2.25;;;11.90;99.90;;;;;;4974390;28;20207;-64
2022/10/01 00:50:49;;;;;;;2.95;2.50;;;12.00;99.90;;;;;;4984640;28;20202;-63
2022/10/01 00:53:20;;;;;;;6.00;2.90;;;12.20;99.90;;;;;;4963155;28;20580;-64
2022/10/01 00:55:53;;;;;;;2.72;2.33;;;11.90;99.90;;;;;;4962940;28;20587;-64
2022/10/01 00:58:20;;;;;;;2.60;2.40;;;12.00;99.90;;;;;;4984675;28;21042;-64
2022/10/01 01:00:56;;;;;;;5.40;2.25;;;12.00;99.90;;;;;;4983945;28;20203;-63
2022/10/01 01:03:23;;;;;;;4.50;2.75;;;;;;;;;;4960426;28;20215;-64
2022/10/01 01:05:50;;;;;;;5.25;2.47;;;12.00;99.90;;;;;;4982462;28;20572;-64
2022/10/01 01:08:18;;;;;;;2.80;2.42;;;12.00;99.90;;;;;;4979280;28;21162;-63
2022/10/01 01:10:54;;;;;;;2.30;2.10;;;12.00;99.90;;;;;;4960990;28;20211;-63
2022/10/01 01:13:29;;;;;;;5.22;2.55;;;12.00;99.90;;;;;;4989065;28;20222;-63
2022/10/01 01:16:03;;;;;;;3.60;2.80;;;12.00;99.90;;;;;;4981241;28;20202;-63
2022/10/01 01:18:35;;;;;;;3.45;2.30;;;12.00;99.90;;;;;;4959837;28;20221;-64
2022/10/01 01:21:16;;;;;;;2.53;2.20;;;12.00;99.90;;;;;;4982358;28;20199;-64
2022/10/01 01:24:23;;;;;;;4.28;2.40;;;12.20;99.90;;;;;;4976790;28;20211;-64
2022/10/01 01:27:00;;;;;;;4.47;2.50;;;12.00;99.90;;;;;;4970166;28;20202;-64
2022/10/01 01:29:38;;;;;;;3.25;2.58;;;12.00;99.90;;;;;;4981644;28;20222;-64
2022/10/01 01:32:11;;;;;;;4.30;2.50;;;12.00;99.90;;;;;;4985851;28;20222;-64
2022/10/01 01:34:42;;;;;;;5.57;2.85;;;12.10;99.90;;;;;;4945007;28;20311;-63
2022/10/01 01:37:13;;;;;;;10.10;3.10;;;12.00;99.90;;;;;;4990604;28;20244;-63
2022/10/01 01:39:43;;;;;;;8.45;2.85;;;12.00;99.90;;;;;;4975188;28;20589;-65
2022/10/01 01:42:18;;;;;;;3.40;2.70;;;12.10;99.90;;;;;;4960965;28;20234;-64
2022/10/01 01:44:48;;;;;;;4.78;2.90;;;12.10;99.90;;;;;;4983624;28;20252;-63
2022/10/01 01:47:17;;;;;;;5.50;3.03;;;12.10;99.90;;;;;;4983039;28;20199;-64
2022/10/01 01:49:45;;;;;;;4.07;2.95;;;12.10;99.90;;;;;;4963048;28;20265;-64
2022/10/01 01:52:14;;;;;;;4.80;2.90;;;12.00;99.90;;;;;;4984659;28;20235;-67
2022/10/01 01:54:43;;;;;;;4.05;2.85;;;12.00;99.90;;;;;;4977494;28;20636;-64
2022/10/01 01:57:12;;;;;;;6.95;3.03;;;12.00;99.90;;;;;;4962027;28;20210;-64
2022/10/01 01:59:40;;;;;;;3.70;2.78;;;12.10;99.90;;;;;;4986095;28;20203;-64
2022/10/01 02:02:12;;;;;;;3.25;2.90;;;12.00;99.90;;;;;;4982953;28;20693;-63
2022/10/01 02:04:41;;;;;;;3.38;3.08;;;12.00;99.90;;;;;;4939038;28;22168;-64
2022/10/01 02:07:24;;;;;;;3.00;2.70;;;12.10;99.90;;;;;;4989919;28;20234;-64
2022/10/01 02:09:58;;;;;;;3.25;2.95;;;12.00;99.90;;;;;;4968580;28;20245;-63
2022/10/01 02:12:36;;;;;;;4.68;3.10;;;11.80;99.90;;;;;;4953785;28;21550;-64
2022/10/01 02:15:09;;;;;;;3.25;2.95;;;12.10;99.90;;;;;;4982670;28;20218;-64
2022/10/01 02:17:49;;;;;;;4.63;3.05;;;12.00;99.90;;;;;;4980980;28;20549;-64
2022/10/01 02:20:20;;;;;;;4.70;3.50;;;12.00;99.90;;;;;;4956884;28;20214;-64
2022/10/01 02:22:52;;;;;;;4.72;2.90;;;11.80;99.90;;;;;;4981564;28;20487;-64
2022/10/01 02:25:25;;;;;;;3.03;2.72;;;12.00;99.90;;;;;;4981142;28;20203;-64
2022/10/01 02:27:57;;;;;;;7.75;3.63;;;12.00;99.90;;;;;;4953849;28;20208;-64
2022/10/01 02:30:25;;;;;;;5.05;2.92;;;12.00;99.90;;;;;;4983669;28;20324;-63
2022/10/01 02:32:58;;;;;;;7.47;3.30;;;12.00;99.90;;;;;;4987173;28;20246;-65
2022/10/01 02:35:27;;;;;;;6.00;3.38;;;11.80;99.90;;;;;;4958627;28;20616;-64
2022/10/01 02:37:56;;;;;;;4.50;3.17;;;12.00;99.90;;;;;;4984365;28;20458;-64
2022/10/01 02:40:27;;;;;;;4.47;3.10;;;11.90;99.90;;;;;;4984869;28;20669;-64
2022/10/01 02:42:58;;;;;;;4.03;3.63;;;11.90;99.90;;;;;;4964503;28;20205;-64
2022/10/01 02:45:30;;;;;;;5.15;3.42;;;11.60;99.90;;;;;;4970137;28;20799;-64
2022/10/01 02:48:03;;;;;;;3.75;3.22;;;11.90;99.90;;;;;;4988843;28;20821;-64
2022/10/01 02:50:34;;;;;;;3.95;3.53;;;11.90;99.90;;;;;;4970974;28;20198;-64
2022/10/01 02:53:05;;;;;;;5.15;3.25;;;11.80;99.90;;;;;;4981477;28;20327;-63
2022/10/01 02:55:36;;;;;;;4.25;3.38;;;11.80;99.90;;;;;;4976989;28;20233;-64
2022/10/01 02:58:02;;;;;;;5.07;3.20;;;11.80;99.90;;;;;;4969418;28;20203;-64
2022/10/01 03:00:29;;;;;;;4.80;3.65;;;11.80;99.90;;;;;;4970110;28;20676;-64
2022/10/01 03:02:56;;;;;;;3.78;3.00;;;11.80;99.90;;;;;;4985933;28;20884;-65
2022/10/01 03:05:24;;;;;;;3.80;3.22;;;;;;;;;;4981674;28;20191;-64
2022/10/01 03:07:51;;;;;;;3.85;3.45;;;11.80;99.90;;;;;;4967312;28;20234;-64
2022/10/01 03:10:18;;;;;;;4.55;3.50;;;11.80;99.90;;;;;;4986317;28;20226;-64
2022/10/01 03:12:45;;;;;;;9.02;3.40;;;11.90;99.90;;;;;;4987820;28;20231;-64
2022/10/01 03:15:12;;;;;;;5.32;3.50;;;11.80;99.90;;;;;;4963271;28;20214;-65
2022/10/01 03:17:39;;;;;;;6.80;3.70;;;11.80;99.90;;;;;;4969470;28;20198;-64
2022/10/01 03:20:07;;;;;;;6.68;3.95;;;11.70;99.90;;;;;;4984200;28;20199;-64
2022/10/01 03:22:35;;;;;;;3.88;3.33;;;11.80;99.90;;;;;;4945510;28;20222;-64
2022/10/01 03:25:02;;;;;;;5.43;3.53;;;12.00;99.90;;;;;;4988570;28;20202;-64
2022/10/01 03:27:29;;;;;;;7.97;3.97;;;11.80;99.90;;;;;;4978972;28;20198;-64
2022/10/01 03:29:56;;;;;;;7.97;4.18;;;11.80;99.90;;;;;;4969424;28;20207;-65
2022/10/01 03:32:23;;;;;;;9.95;4.30;;;11.60;99.90;;;;;;4985992;28;20309;-64
2022/10/01 03:34:50;;;;;;;10.10;3.70;;;11.70;99.90;;;;;;4989812;28;20207;-64
2022/10/01 03:37:16;;;;;;;3.75;3.40;;;11.80;99.90;;;;;;4958771;28;21232;-64
2022/10/01 03:39:44;;;;;;;6.63;4.15;;;11.80;99.90;;;;;;4984528;28;20198;-64
2022/10/01 03:42:11;;;;;;;7.22;4.00;;;11.70;99.90;;;;;;4974797;28;20998;-64
2022/10/01 03:44:38;;;;;;;5.90;3.67;;;11.80;99.90;;;;;;4972923;28;20245;-64
2022/10/01 03:47:05;;;;;;;7.97;5.03;;;11.70;99.90;;;;;;4973253;28;20231;-64
2022/10/01 03:49:32;;;;;;;6.63;4.38;;;11.80;99.90;;;;;;4977345;28;20207;-64
2022/10/01 03:51:59;;;;;;;6.55;5.07;;;12.90;99.90;;;;;;4962392;28;20225;-64
2022/10/01 03:54:26;;;;;;;11.98;5.07;;;11.70;99.90;;;;;;4984217;28;20566;-64
2022/10/01 03:56:54;;;;;;;5.43;4.50;;;11.80;99.90;;;;;;4974581;28;20819;-65
2022/10/01 03:59:21;;;;;;;10.88;4.93;;;11.90;99.90;;;;;;4984614;28;20202;-65
2022/10/01 04:01:48;;;;;;;7.50;4.03;;;11.80;99.90;;;;;;4970620;28;20207;-64
2022/10/01 04:04:15;;;;;;;5.68;4.20;;;11.80;99.90;;;;;;4970089;28;20209;-65
2022/10/01 04:06:42;;;;;;;6.50;4.30;;;11.30;99.90;;;;;;4986898;28;20203;-64
2022/10/01 04:09:09;;;;;;;5.15;4.22;;;11.70;99.90;;;;;;4958532;28;20254;-64
2022/10/01 04:11:36;;;;;;;7.45;4.05;;;11.70;99.90;;;;;;4991825;28;20196;-65
2022/10/01 04:14:05;;;;;;;6.57;4.15;;;11.80;99.90;;;;;;4989869;28;20223;-64
2022/10/01 04:16:34;;;;;;;6.55;4.07;;;11.60;99.90;;;;;;4968889;28;20199;-65
2022/10/01 04:19:01;;;;;;;6.50;4.60;;;12.00;99.90;;;;;;4976949;28;20203;-65
2022/10/01 04:21:28;;;;;;;5.35;4.07;;;11.90;99.90;;;;;;4985704;28;20218;-65
2022/10/01 04:23:55;;;;;;;4.78;4.22;;;11.90;99.90;;;;;;4947093;28;20234;-65
2022/10/01 04:26:22;;;;;;;8.18;4.20;;;12.40;99.90;;;;;;4989711;28;20199;-65
2022/10/01 04:28:49;;;;;;;6.47;4.53;;;12.00;99.90;;;;;;4987816;28;21003;-65
2022/10/01 04:31:26;;;;;;;6.30;4.38;;;11.90;99.90;;;;;;4984985;28;20230;-65
2022/10/01 04:33:54;;;;;;;5.20;4.28;;;11.90;99.90;;;;;;4971335;28;20226;-65
2022/10/01 04:36:22;;;;;;;4.25;3.63;;;11.90;99.90;;;;;;4974923;28;20211;-66
2022/10/01 04:38:51;;;;;;;13.05;4.03;;;11.20;99.90;;;;;;4961174;28;20268;-65
2022/10/01 04:41:18;;;;;;;5.22;4.10;;;12.00;99.90;;;;;;4969536;28;20203;-65
2022/10/01 04:43:44;;;;;;;5.78;3.83;;;11.90;99.90;;;;;;4982998;28;20199;-66
2022/10/01 04:46:11;;;;;;;4.90;4.18;;;12.10;99.90;;;;;;4981911;28;20199;-65
2022/10/01 04:48:40;;;;;;;6.20;4.20;;;11.50;99.90;;;;;;4962859;28;20207;-65
2022/10/01 04:51:06;;;;;;;4.82;3.65;;;11.90;99.90;;;;;;4967687;28;20219;-66
2022/10/01 04:53:33;;;;;;;5.18;3.70;;;12.00;99.90;;;;;;4968680;28;20602;-65
2022/10/01 04:56:00;;;;;;;4.32;3.80;;;12.00;99.90;;;;;;4955734;28;20227;-65
2022/10/01 04:58:27;;;;;;;4.68;3.85;;;11.80;99.90;;;;;;4988053;28;20288;-65
2022/10/01 05:00:54;;;;;;;4.25;3.30;;;12.00;99.90;;;;;;4974380;28;20226;-65
2022/10/01 05:03:21;;;;;;;4.78;3.20;;;12.00;99.90;;;;;;4976948;28;20207;-65
2022/10/01 05:05:49;;;;;;;4.15;3.35;;;12.00;99.90;;;;;;4980273;28;20200;-65
2022/10/01 05:08:16;;;;;;;5.18;3.92;;;12.00;99.90;;;;;;4978701;28;20225;-65
2022/10/01 05:10:42;;;;;;;3.65;3.17;;;12.00;99.90;;;;;;4962189;28;20680;-66
2022/10/01 05:13:09;;;;;;;3.90;3.50;;;12.10;99.90;;;;;;4972662;28;20596;-66
2022/10/01 05:15:37;;;;;;;3.65;3.00;;;11.80;99.90;;;;;;4982874;28;20197;-65
2022/10/01 05:18:04;;;;;;;4.95;3.45;;;11.80;99.90;;;;;;4959867;28;20304;-65
2022/10/01 05:20:32;;;;;;;3.63;3.20;;;12.00;99.90;;;;;;4973594;28;20925;-65
2022/10/01 05:23:01;;;;;;;3.30;3.00;;;12.40;99.90;;;;;;4963985;28;21010;-66
2022/10/01 05:25:27;;;;;;;3.63;3.15;;;12.10;99.90;;;;;;4977745;28;20772;-65
2022/10/01 05:28:03;;;;;;;4.35;3.25;;;12.20;99.90;;;;;;4959705;28;20206;-65
2022/10/01 05:30:30;;;;;;;8.57;3.10;;;12.10;99.90;;;;;;4978386;28;20340;-64
2022/10/01 05:32:59;;;;;;;3.80;3.28;;;12.20;99.90;;;;;;4961328;28;20854;-65
2022/10/01 05:35:27;;;;;;;3.33;3.03;;;12.00;99.90;;;;;;4973769;28;20328;-65
2022/10/01 05:37:58;;;;;;;4.85;3.53;;;12.10;99.90;;;;;;4969008;28;20211;-65
2022/10/01 05:40:28;;;;;;;4.40;3.30;;;12.00;99.90;;;;;;4979359;28;20869;-65
2022/10/01 05:42:57;;;;;;;3.42;3.13;;;12.10;99.90;;;;;;4949402;28;20364;-65
2022/10/01 05:45:24;;;;;;;8.30;2.85;;;11.90;99.90;;;;;;4966286;28;20862;-65
2022/10/01 05:47:58;;;;;;;3.40;3.10;;;12.10;99.90;;;;;;4967160;28;20207;-65
2022/10/01 05:50:26;;;;;;;3.83;3.05;;;12.10;99.90;;;;;;4953236;28;20223;-65
2022/10/01 05:52:53;;;;;;;3.63;3.20;;;12.10;99.90;;;;;;4981476;28;20289;-65
2022/10/01 05:55:21;;;;;;;3.85;3.10;;;12.20;99.90;;;;;;4956529;28;20211;-65
2022/10/01 05:57:57;;;;;;;3.65;2.92;;;12.10;99.90;;;;;;4956936;28;20206;-65
2022/10/01 06:00:27;;;;;;;3.75;3.28;;;12.10;99.90;;;;;;4965841;28;20207;-65
2022/10/01 06:02:55;;;;;;;3.05;2.83;;;12.20;99.90;;;;;;4958291;28;20210;-65
2022/10/01 06:05:22;;;;;;;4.10;3.05;;;;;;;;;;4968687;28;20211;-65
2022/10/01 06:07:50;;;;;;;4.30;2.83;;;12.00;99.90;;;;;;4977432;28;20234;-65
2022/10/01 06:10:17;;;;;;;3.00;2.70;;;12.20;99.90;;;;;;4972189;28;20206;-65
2022/10/01 06:12:44;;;;;;;5.25;2.92;;;12.40;99.90;;;;;;4958334;28;20704;-65
2022/10/01 06:15:13;;;;;;;3.10;2.80;;;12.10;99.90;;;;;;4960183;28;20226;-65
2022/10/01 06:17:43;;;;;;;3.00;2.70;;;12.40;99.90;;;;;;4973216;28;20234;-65
2022/10/01 06:20:12;;;;;;;4.93;2.85;;;12.10;99.90;;;;;;4969868;28;22124;-65
2022/10/01 06:22:39;;;;;;;3.08;2.78;;;12.20;99.90;;;;;;4963162;28;20220;-65
2022/10/01 06:25:07;;;;;;;2.60;2.40;;;12.30;99.90;;;;;;4959375;28;20668;-66
2022/10/01 06:27:34;;;;;;;2.60;2.40;;;12.30;99.90;;;;;;4948725;28;21013;-65
2022/10/01 06:30:01;;;;;;;2.50;2.30;;;12.20;99.90;;;;;;4973357;28;20202;-65
2022/10/01 06:32:29;;;;;;;2.65;2.33;;;12.30;99.90;;;;;;4964968;28;21055;-65
2022/10/01 06:34:56;;;;;;;2.67;2.25;;;11.50;99.90;;;;;;4986195;28;20227;-64
2022/10/01 06:37:23;;;;;;;3.42;2.50;;;12.40;99.90;;;;;;4954116;28;20212;-65
2022/10/01 06:39:50;;;;;;;2.72;2.47;;;12.50;99.90;;;;;;4969905;28;20245;-65
2022/10/01 06:42:17;;;;;;;2.78;2.38;;;12.20;99.90;;;;;;4932867;28;20483;-65
2022/10/01 06:44:44;;;;;;;2.75;2.30;;;12.40;99.90;;;;;;4982431;28;20218;-64
2022/10/01 06:47:10;;;;;;;2.80;2.50;;;12.50;99.90;;;;;;4980279;28;20254;-65
2022/10/01 06:49:39;;;;;;;3.38;2.25;;;12.40;99.90;;;;;;4972678;28;20223;-65
2022/10/01 06:54:46;;;;;;;3.75;2.40;;;12.40;99.90;;;;;;4917376;28;21098;-66
2022/10/01 06:57:13;;;;;;;2.80;2.60;;;;;;;;;;4959319;28;20231;-65
2022/10/01 06:59:40;;;;;;;2.72;2.50;;;12.30;99.90;;;;;;4934135;28;20754;-66
2022/10/01 07:02:07;;;;;;;2.65;2.45;;;12.50;99.90;;;;;;4968090;28;20707;-65
2022/10/01 07:04:33;;;;;;;3.38;2.28;;;13.30;99.90;;;;;;4981533;28;20265;-65
2022/10/01 07:07:02;;;;;;;2.33;2.13;;;12.60;99.90;;;;;;4970155;28;21522;-65
2022/10/01 07:09:28;;;;;;;2.50;2.30;;;12.60;99.90;;;;;;4961621;28;20227;-65
2022/10/01 07:11:56;;;;;;;2.90;2.60;;;14.10;99.90;;;;;;4954847;28;20233;-65
2022/10/01 07:14:23;;;;;;;3.83;2.40;;;12.70;99.90;;;;;;4949196;28;20262;-65
2022/10/01 07:16:49;;;;;;;6.40;2.75;;;12.50;99.90;;;;;;4960936;28;20217;-65
2022/10/01 07:19:16;;;;;;;2.60;2.40;;;12.70;99.90;;;;;;4980954;28;20214;-65
2022/10/01 07:21:43;;;;;;;2.58;2.38;;;12.60;99.90;;;;;;4980623;28;20210;-65
2022/10/01 07:24:12;;;;;;;4.45;2.58;;;12.80;99.90;;;;;;4941637;28;20211;-65
2022/10/01 07:26:39;;;;;;;2.17;2.03;;;12.60;99.90;;;;;;4968214;28;20834;-65
2022/10/01 07:29:07;;;;;;;3.58;2.20;;;15.90;99.90;;;;;;4928304;28;20708;-65
2022/10/01 07:31:34;;;;;;;2.65;2.45;;;12.80;99.90;;;;;;4964642;28;20314;-65
2022/10/01 07:34:01;;;;;;;2.22;2.03;;;12.00;99.90;;;;;;4977366;28;20695;-65
2022/10/01 07:36:28;;;;;;;2.88;2.40;;;12.80;99.90;;;;;;4975926;28;20219;-65
2022/10/01 07:38:54;;;;;;;2.38;2.17;;;12.70;99.90;;;;;;4954498;28;20222;-64
2022/10/01 07:41:22;;;;;;;2.70;2.50;;;12.80;99.90;;;;;;4946803;28;20828;-66
2022/10/01 07:43:49;;;;;;;3.38;3.00;;;13.00;99.90;;;;;;4959869;28;20230;-64
2022/10/01 07:46:16;;;;;;;4.85;3.70;;;13.10;99.90;;;;;;4919728;28;21115;-65
2022/10/01 07:48:45;;;;;;;4.20;3.40;;;13.00;99.90;;;;;;4965595;28;20238;-65
2022/10/01 07:51:12;;;;;;;3.88;3.58;;;13.20;99.90;;;;;;4972952;28;20736;-65
2022/10/01 07:53:38;;;;;;;4.75;4.35;;;13.10;99.90;;;;;;4957073;28;20326;-65
2022/10/01 07:56:06;;;;;;;5.43;4.93;;;13.20;99.90;;;;;;4951706;28;20240;-65
2022/10/01 07:58:35;;;;;;;4.55;4.15;;;13.30;99.90;;;;;;4961996;28;20581;-65
2022/10/01 08:01:03;;;;;;;4.55;3.92;;;13.40;99.90;;;;;;4932900;28;20215;-66
2022/10/01 08:03:30;;;;;;;4.57;4.18;;;12.20;99.90;;;;;;4963227;28;20227;-65
2022/10/01 08:05:57;;;;;;;3.72;3.42;;;13.50;99.90;;;;;;4966821;28;20709;-65
2022/10/01 08:08:24;;;;;;;3.58;3.20;;;;;;;;;;4949670;28;21405;-66
2022/10/01 08:10:51;;;;;;;3.63;3.33;;;13.50;99.90;;;;;;4937247;28;20650;-66
2022/10/01 08:13:19;;;;;;;3.45;3.00;;;13.70;99.90;;;;;;4932022;28;20215;-66
2022/10/01 08:15:52;;;;;;;4.68;2.88;;;;;;;;;;4948429;28;20326;-66
2022/10/01 08:18:19;;;;;;;2.95;2.72;;;13.60;99.90;;;;;;4921626;28;21639;-66
2022/10/01 08:20:46;;;;;;;5.22;3.28;;;13.40;99.90;;;;;;4959238;28;20219;-66
2022/10/01 08:23:15;;;;;;;3.20;2.92;;;13.70;99.90;;;;;;4938601;28;20806;-66
2022/10/01 08:25:44;;;;;;;5.57;3.33;;;13.70;99.90;;;;;;4951016;28;20223;-68
2022/10/01 08:28:12;;;;;;;3.47;3.05;;;13.70;99.90;;;;;;4969883;23;21609;-67
2022/10/01 08:30:41;;;;;;;3.60;3.30;;;13.90;99.90;;;;;;4976482;28;20869;-66
2022/10/01 08:33:11;;;;;;;3.45;3.00;;;14.00;99.90;;;;;;4958174;28;20252;-66
2022/10/01 08:35:39;;;;;;;5.32;3.17;;;14.10;99.90;;;;;;4979875;28;20234;-66
2022/10/01 08:38:06;;;;;;;3.45;3.15;;;13.90;99.90;;;;;;4986086;28;20230;-66
2022/10/01 08:40:36;;;;;;;3.72;2.85;;;14.00;99.90;;;;;;4986575;28;20237;-66
2022/10/01 08:43:06;;;;;;;2.90;2.70;;;14.00;99.90;;;;;;4971437;28;20250;-66
2022/10/01 08:45:41;;;;;;;6.53;3.20;;;14.00;99.90;;;;;;4982475;28;20222;-66
2022/10/01 08:48:18;;;;;;;4.32;2.97;;;14.00;99.90;;;;;;4970584;28;21508;-66
2022/10/01 08:50:51;;;;;;;4.97;3.20;;;14.00;99.90;;;;;;4986700;28;20227;-66
2022/10/01 08:53:28;;;;;;;3.30;3.00;;;13.90;99.90;;;;;;4979081;28;20275;-67
2022/10/01 08:55:57;;;;;;;2.80;2.60;;;14.20;99.90;;;;;;4971789;28;20229;-66
2022/10/01 08:58:28;;;;;;;3.83;3.40;;;13.90;99.90;;;;;;4973661;28;20298;-67
2022/10/01 09:00:55;;;;;;;7.45;3.80;;;14.20;99.90;;;;;;4961462;28;20226;-67
2022/10/01 09:03:25;;;;;;;3.45;3.10;;;14.20;99.90;;;;;;4965089;28;20210;-64
2022/10/01 09:06:08;;;;;;;3.30;2.97;;;14.20;99.90;;;;;;4995231;28;20228;-65
2022/10/01 09:08:46;;;;;;;6.00;3.17;;;14.30;99.90;;;;;;5006788;28;20213;-66
2022/10/01 09:11:22;;;;;;;7.22;3.33;;;14.60;99.90;;;;;;4980112;28;20252;-66
2022/10/01 09:14:09;;;;;;;3.80;3.03;;;14.50;99.90;;;;;;4984795;28;20232;-65
2022/10/01 09:16:41;;;;;;;7.10;3.40;;;14.60;99.90;;;;;;4961015;28;20691;-66
2022/10/01 09:19:24;;;;;;;4.63;3.13;;;14.60;99.90;;;;;;4957656;28;20434;-66
2022/10/01 09:21:56;;;;;;;3.90;3.15;;;14.30;99.90;;;;;;4981648;28;20195;-65
2022/10/01 09:24:37;;;;;;;5.68;3.30;;;14.60;99.90;;;;;;4995471;28;20268;-66
2022/10/01 09:27:14;;;;;;;4.10;3.17;;;14.80;99.90;;;;;;4987262;28;20972;-66
2022/10/01 09:29:45;;;;;;;3.47;3.17;;;14.90;99.90;;;;;;4986525;28;20861;-66
2022/10/01 09:32:17;;;;;;;2.85;2.65;;;14.90;99.90;;;;;;4969489;28;20202;-66
2022/10/01 09:34:46;;;;;;;3.50;2.95;;;15.00;99.90;;;;;;4965256;28;20229;-66
2022/10/01 09:37:23;;;;;;;6.75;3.10;;;15.00;99.90;;;;;;4979163;28;20832;-66
2022/10/01 09:40:13;;;;;;;8.48;3.45;;;15.00;99.90;;;;;;4996726;28;20207;-65
2022/10/01 09:42:40;;;;;;;6.72;3.10;;;14.90;99.90;;;;;;4990226;28;20198;-66
2022/10/01 09:45:11;;;;;;;9.02;3.00;;;15.00;99.90;;;;;;4983112;28;20197;-66
2022/10/01 09:47:42;;;;;;;4.85;2.67;;;15.00;99.90;;;;;;4984087;28;20531;-67
2022/10/01 09:50:15;;;;;;;5.03;2.55;;;15.10;99.90;;;;;;4971383;28;20215;-66
2022/10/01 09:52:44;;;;;;;7.05;2.78;;;15.10;99.90;;;;;;4987933;28;20210;-66
2022/10/01 09:55:22;;;;;;;4.57;2.45;;;15.20;99.90;;;;;;4991274;28;20226;-65
2022/10/01 09:57:53;;;;;;;3.40;2.40;;;15.30;99.90;;;;;;4992097;28;20197;-67
2022/10/01 10:00:21;;;;;;;5.13;2.85;;;15.30;99.90;;;;;;4982879;28;20540;-68
2022/10/01 10:02:50;;;;;;;13.32;2.90;;;15.40;99.90;;;;;;4981170;28;20298;-66
2022/10/01 10:05:20;;;;;;;5.22;2.80;;;14.80;99.90;;;;;;4986884;28;20620;-67
2022/10/01 10:07:51;;;;;;;11.55;2.72;;;15.40;99.90;;;;;;4975625;28;22258;-66
2022/10/01 10:10:20;;;;;;;5.95;2.50;;;15.30;99.90;;;;;;5007111;28;20208;-66
2022/10/01 10:12:54;;;;;;;5.63;2.20;;;15.50;99.90;;;;;;4992660;28;20202;-66
2022/10/01 10:15:25;;;;;;;4.47;2.30;;;15.50;99.90;;;;;;4984534;28;20951;-66
2022/10/01 10:17:54;;;;;;;5.90;2.45;;;15.60;99.90;;;;;;4990735;28;20198;-67
2022/10/01 10:20:29;;;;;;;3.22;1.77;;;15.60;99.90;;;;;;4965463;28;20221;-66
2022/10/01 10:23:07;;;;;;;4.70;1.63;;;15.50;99.90;;;;;;4992208;28;20201;-66
2022/10/01 10:25:34;;;;;;;4.57;1.92;;;15.60;99.90;;;;;;4999274;28;20217;-65
2022/10/01 10:28:02;;;;;;;11.43;2.25;;;15.50;99.90;;;;;;4991442;23;20230;-66
2022/10/01 10:30:29;;;;;;;6.45;2.15;;;15.50;99.90;;;;;;4960510;28;20329;-66
2022/10/01 10:33:04;;;;;;;7.40;1.67;;;15.50;99.90;;;;;;4973327;28;20593;-65
2022/10/01 10:35:32;;;;;;;6.78;1.73;;;15.50;99.90;;;;;;4984145;28;20661;-66
2022/10/01 10:38:00;;;;;;;4.28;1.80;;;15.30;99.90;;;;;;4972458;28;20202;-66
2022/10/01 10:40:29;;;;;;;2.63;1.50;;;15.40;99.90;;;;;;4981315;28;20230;-65
2022/10/01 10:42:58;;;;;;;5.00;1.83;;;15.70;99.90;;;;;;4996658;28;20218;-66
2022/10/01 10:45:32;;;;;;;7.75;1.92;;;15.60;99.90;;;;;;4978575;28;20215;-66
2022/10/01 10:48:01;;;;;;;7.55;1.98;;;15.70;99.90;;;;;;4986137;28;20236;-66
2022/10/01 10:50:36;;;;;;;6.28;1.85;;;15.70;99.90;;;;;;4978653;28;20705;-66
2022/10/01 10:53:18;;;;;;;6.88;2.05;;;15.70;99.90;;;;;;4976292;28;20233;-66
2022/10/01 10:55:54;;;;;;;6.45;1.50;;;15.80;99.90;;;;;;4985612;28;20729;-66
2022/10/01 10:58:26;;;;;;;7.05;1.60;;;15.60;99.90;;;;;;5017564;23;20318;-67
2022/10/01 11:00:57;;;;;;;4.35;1.88;;;15.70;99.90;;;;;;5000071;28;20675;-66
2022/10/01 11:06:13;;;;;;;5.32;1.65;;;15.80;99.90;;;;;;5036814;23;20238;-66
2022/10/01 11:08:41;;;;;;;4.47;1.25;;;15.70;99.90;;;;;;5014749;28;20224;-66
2022/10/01 11:11:19;;;;;;;8.85;1.55;;;15.80;99.90;;;;;;5047609;28;20793;-66
2022/10/01 11:14:09;;;;;;;8.32;1.67;;;15.90;99.90;;;;;;5050193;28;20228;-66
2022/10/01 11:16:51;;;;;;;5.30;1.30;;;15.80;99.90;;;;;;5039754;28;20232;-66
2022/10/01 11:19:44;;;;;;;4.25;1.27;;;15.80;99.90;;;;;;5046263;28;20207;-66
2022/10/01 11:22:18;;;;;;;7.47;1.48;;;;;;;;;;5047133;28;20202;-66
2022/10/01 11:25:05;;;;;;;5.55;1.63;;;15.70;99.90;;;;;;5039141;28;20222;-66
2022/10/01 11:27:41;;;;;;;3.85;1.48;;;15.60;99.90;;;;;;5043835;28;20876;-66
2022/10/01 11:30:13;;;;;;;9.30;1.25;;;15.70;99.90;;;;;;5046840;28;20307;-66
2022/10/01 11:32:45;;;;;;;7.47;1.58;;;15.70;99.90;;;;;;5042155;28;20220;-66
2022/10/01 11:35:25;;;;;;;9.25;1.63;;;15.90;99.90;;;;;;5048806;28;20223;-67
2022/10/01 11:38:08;;;;;;;4.43;1.63;;;16.00;99.90;;;;;;5017393;28;21274;-66
2022/10/01 11:40:40;;;;;;;4.30;1.38;;;16.00;99.90;;;;;;5055513;28;20196;-67
2022/10/01 11:43:16;;;;;;;4.60;1.30;;;16.20;99.90;;;;;;5051544;28;20223;-66
2022/10/01 11:45:48;;;;;;;6.30;1.35;;;16.20;99.90;;;;;;5045761;28;20204;-66
2022/10/01 11:48:24;;;;;;;8.15;1.35;;;16.30;99.90;;;;;;5043678;28;20239;-66
2022/10/01 11:50:55;;;;;;;5.20;1.50;;;16.50;98.90;;;;;;5052592;28;20337;-66
2022/10/01 11:53:31;;;;;;;3.85;1.30;;;16.60;99.90;;;;;;5020161;28;20254;-67
2022/10/01 11:58:50;;;;;;;6.95;1.50;;;16.80;99.90;;;;;;5049387;28;20644;-67
2022/10/01 12:01:30;;;;;;;6.93;1.42;;;16.70;99.90;;;;;;5045492;28;20265;-66
2022/10/01 12:04:03;;;;;;;6.15;1.52;;;16.70;99.90;;;;;;5042465;28;20200;-65
2022/10/01 12:06:35;;;;;;;8.15;1.42;;;16.20;99.90;;;;;;5040772;28;20196;-66
2022/10/01 12:09:09;;;;;;;7.38;1.55;;;16.20;99.90;;;;;;5029775;28;20208;-66
2022/10/01 12:11:41;;;;;;;4.05;1.52;;;16.20;99.90;;;;;;5059986;28;20818;-66
2022/10/01 12:14:12;;;;;;;7.88;2.17;;;16.00;99.90;;;;;;5045696;28;20204;-66
2022/10/01 12:16:45;;;;;;;5.88;1.60;;;15.70;99.90;;;;;;5045562;28;20590;-66
2022/10/01 12:19:17;;;;;;;5.57;1.48;;;14.30;99.90;;;;;;5049019;28;20193;-67
2022/10/01 12:21:47;;;;;;;4.13;1.02;;;13.60;99.90;;;;;;5035848;28;20207;-66
2022/10/01 12:24:19;;;;;;;3.03;1.17;;;13.50;99.90;;;;;;5033920;28;21209;-67
2022/10/01 12:26:56;;;;;;;1.90;1.00;;;13.50;99.90;;;;;;5056646;28;20209;-67
2022/10/01 12:29:35;;;;;;;3.30;0.75;;;13.60;99.90;;;;;;5043075;28;20610;-67
2022/10/01 12:32:12;;;;;;;2.33;0.70;;;13.60;99.90;;;;;;5049371;28;20209;-66
2022/10/01 12:34:46;;;;;;;1.27;0.73;;;14.50;99.90;;;;;;5040864;28;20314;-66
2022/10/01 12:37:21;;;;;;;2.03;1.00;;;13.60;99.90;;;;;;5046948;28;20758;-67
2022/10/01 12:40:04;;;;;;;2.85;1.10;;;13.70;99.90;;;;;;5025192;28;20810;-67
2022/10/01 12:42:53;;;;;;;3.60;0.88;;;13.80;99.90;;;;;;5056812;28;20216;-66
2022/10/01 12:45:30;;;;;;;3.25;1.15;;;13.90;99.90;;;;;;5040727;28;20217;-66
2022/10/01 12:48:07;;;;;;;4.50;0.98;;;13.90;99.90;;;;;;5050153;28;20200;-66
2022/10/01 12:50:44;;;;;;;3.72;1.27;;;14.00;99.90;;;;;;5051525;28;20816;-67
2022/10/01 12:53:21;;;;;;;5.10;1.20;;;14.00;99.90;;;;;;5064868;28;20203;-67
2022/10/01 12:55:58;;;;;;;3.22;1.30;;;14.30;99.90;;;;;;5034072;28;20219;-67
2022/10/01 12:58:55;;;;;;;1.48;1.20;;;14.30;99.90;;;;;;5049605;28;20495;-66
2022/10/01 13:01:37;;;;;;;1.35;0.73;;;14.40;99.90;;;;;;5047454;28;20200;-66
2022/10/01 13:04:31;;;;;;;1.27;0.70;;;14.80;99.90;;;;;;5048954;28;20212;-66
2022/10/01 13:07:13;;;;;;;2.45;0.80;;;14.70;99.90;;;;;;5046681;28;20674;-67
2022/10/01 13:09:46;;;;;;;1.73;0.80;;;14.60;99.90;;;;;;5054079;28;20406;-66
2022/10/01 13:12:27;;;;;;;2.97;0.75;;;14.70;99.90;;;;;;5012391;28;20885;-67
2022/10/01 13:14:56;;;;;;;1.45;0.70;;;14.70;99.90;;;;;;5042349;28;21877;-66